sensor_id;sensor_type;location;lat;lon;timestamp;P1;durP1;ratioP1;P2;durP2;ratioP2
67798;SDS011;54596;43.216;27.904;2023-05-14T00:01:35;17.52;;;11.02;;
67798;SDS011;54596;43.216;27.904;2023-05-14T00:04:01;19.15;;;10.70;;
67798;SDS011;54596;43.216;27.904;2023-05-14T00:06:27;16.95;;;11.15;;
67798;SDS011;54596;43.216;27.904;2023-05-14T00:08:53;17.85;;;11.60;;
67798;SDS011;54596;43.216;27.904;2023-05-14T00:11:21;17.58;;;12.00;;
67798;SDS011;54596;43.216;27.904;2023-05-14T00:13:48;20.02;;;12.77;;
67798;SDS011;54596;43.216;27.904;2023-05-14T00:16:14;18.77;;;12.15;;
67798;SDS011;54596;43.216;27.904;2023-05-14T00:18:40;16.90;;;11.95;;
67798;SDS011;54596;43.216;27.904;2023-05-14T00:21:06;18.88;;;11.63;;
67798;SDS011;54596;43.216;27.904;2023-05-14T00:23:31;17.95;;;12.15;;
67798;SDS011;54596;43.216;27.904;2023-05-14T00:25:57;17.05;;;12.05;;
67798;SDS011;54596;43.216;27.904;2023-05-14T00:28:23;18.55;;;12.80;;
67798;SDS011;54596;43.216;27.904;2023-05-14T00:30:49;18.85;;;12.45;;
67798;SDS011;54596;43.216;27.904;2023-05-14T00:33:15;16.27;;;12.30;;
67798;SDS011;54596;43.216;27.904;2023-05-14T00:35:42;18.15;;;12.98;;
67798;SDS011;54596;43.216;27.904;2023-05-14T00:38:08;19.33;;;11.77;;
67798;SDS011;54596;43.216;27.904;2023-05-14T00:40:34;18.30;;;12.88;;
67798;SDS011;54596;43.216;27.904;2023-05-14T00:42:59;17.85;;;11.57;;
67798;SDS011;54596;43.216;27.904;2023-05-14T00:45:25;20.17;;;11.52;;
67798;SDS011;54596;43.216;27.904;2023-05-14T00:47:51;15.95;;;10.38;;
67798;SDS011;54596;43.216;27.904;2023-05-14T00:50:21;15.93;;;10.32;;
67798;SDS011;54596;43.216;27.904;2023-05-14T00:52:47;17.13;;;11.07;;
67798;SDS011;54596;43.216;27.904;2023-05-14T00:55:13;18.52;;;12.10;;
67798;SDS011;54596;43.216;27.904;2023-05-14T00:57:40;18.90;;;12.65;;
67798;SDS011;54596;43.216;27.904;2023-05-14T01:00:06;19.40;;;12.38;;
67798;SDS011;54596;43.216;27.904;2023-05-14T01:02:32;18.27;;;12.80;;
67798;SDS011;54596;43.216;27.904;2023-05-14T01:04:58;23.08;;;13.43;;
67798;SDS011;54596;43.216;27.904;2023-05-14T01:10:12;17.90;;;12.43;;
67798;SDS011;54596;43.216;27.904;2023-05-14T01:15:38;16.08;;;10.35;;
67798;SDS011;54596;43.216;27.904;2023-05-14T01:18:09;15.52;;;9.88;;
67798;SDS011;54596;43.216;27.904;2023-05-14T01:23:03;15.93;;;10.35;;
67798;SDS011;54596;43.216;27.904;2023-05-14T01:25:29;14.23;;;9.80;;
67798;SDS011;54596;43.216;27.904;2023-05-14T01:27:58;13.85;;;9.27;;
67798;SDS011;54596;43.216;27.904;2023-05-14T01:30:30;17.75;;;9.75;;
67798;SDS011;54596;43.216;27.904;2023-05-14T01:33:05;17.20;;;9.52;;
67798;SDS011;54596;43.216;27.904;2023-05-14T01:35:34;14.32;;;9.60;;
67798;SDS011;54596;43.216;27.904;2023-05-14T01:38:00;16.13;;;9.25;;
67798;SDS011;54596;43.216;27.904;2023-05-14T01:40:31;18.35;;;9.52;;
67798;SDS011;54596;43.216;27.904;2023-05-14T01:42:58;17.95;;;9.63;;
67798;SDS011;54596;43.216;27.904;2023-05-14T01:45:24;15.25;;;9.63;;
67798;SDS011;54596;43.216;27.904;2023-05-14T01:47:51;15.75;;;9.70;;
67798;SDS011;54596;43.216;27.904;2023-05-14T01:50:16;17.40;;;10.38;;
67798;SDS011;54596;43.216;27.904;2023-05-14T01:52:42;15.50;;;9.73;;
67798;SDS011;54596;43.216;27.904;2023-05-14T01:55:08;15.93;;;10.60;;
67798;SDS011;54596;43.216;27.904;2023-05-14T01:57:34;15.18;;;9.93;;
67798;SDS011;54596;43.216;27.904;2023-05-14T02:00:00;18.58;;;10.93;;
67798;SDS011;54596;43.216;27.904;2023-05-14T02:02:25;17.60;;;11.30;;
67798;SDS011;54596;43.216;27.904;2023-05-14T02:04:51;20.20;;;13.27;;
67798;SDS011;54596;43.216;27.904;2023-05-14T02:07:17;19.95;;;14.88;;
67798;SDS011;54596;43.216;27.904;2023-05-14T02:09:42;26.10;;;16.38;;
67798;SDS011;54596;43.216;27.904;2023-05-14T02:12:08;19.95;;;15.40;;
67798;SDS011;54596;43.216;27.904;2023-05-14T02:14:35;23.92;;;16.20;;
67798;SDS011;54596;43.216;27.904;2023-05-14T02:17:00;21.25;;;17.02;;
67798;SDS011;54596;43.216;27.904;2023-05-14T02:19:27;24.92;;;17.63;;
67798;SDS011;54596;43.216;27.904;2023-05-14T02:21:53;25.30;;;16.85;;
67798;SDS011;54596;43.216;27.904;2023-05-14T02:24:19;23.70;;;17.52;;
67798;SDS011;54596;43.216;27.904;2023-05-14T02:26:44;22.92;;;16.55;;
67798;SDS011;54596;43.216;27.904;2023-05-14T02:29:11;22.92;;;15.10;;
67798;SDS011;54596;43.216;27.904;2023-05-14T02:31:37;19.35;;;14.90;;
67798;SDS011;54596;43.216;27.904;2023-05-14T02:34:03;21.55;;;14.18;;
67798;SDS011;54596;43.216;27.904;2023-05-14T02:36:30;22.08;;;15.95;;
67798;SDS011;54596;43.216;27.904;2023-05-14T02:38:57;23.95;;;16.67;;
67798;SDS011;54596;43.216;27.904;2023-05-14T02:41:23;29.17;;;18.23;;
67798;SDS011;54596;43.216;27.904;2023-05-14T02:43:49;27.17;;;18.48;;
67798;SDS011;54596;43.216;27.904;2023-05-14T02:46:15;23.13;;;16.77;;
67798;SDS011;54596;43.216;27.904;2023-05-14T02:48:40;23.00;;;15.90;;
67798;SDS011;54596;43.216;27.904;2023-05-14T02:51:09;21.90;;;16.33;;
67798;SDS011;54596;43.216;27.904;2023-05-14T02:53:35;21.52;;;16.30;;
67798;SDS011;54596;43.216;27.904;2023-05-14T02:56:00;23.23;;;15.50;;
67798;SDS011;54596;43.216;27.904;2023-05-14T02:58:26;25.73;;;16.83;;
67798;SDS011;54596;43.216;27.904;2023-05-14T03:00:54;25.10;;;16.50;;
67798;SDS011;54596;43.216;27.904;2023-05-14T03:03:20;23.92;;;16.80;;
67798;SDS011;54596;43.216;27.904;2023-05-14T03:05:46;22.77;;;17.30;;
67798;SDS011;54596;43.216;27.904;2023-05-14T03:08:12;24.13;;;17.25;;
67798;SDS011;54596;43.216;27.904;2023-05-14T03:10:37;25.15;;;17.67;;
67798;SDS011;54596;43.216;27.904;2023-05-14T03:13:03;24.98;;;17.17;;
67798;SDS011;54596;43.216;27.904;2023-05-14T03:15:28;25.60;;;17.17;;
67798;SDS011;54596;43.216;27.904;2023-05-14T03:17:54;24.23;;;17.33;;
67798;SDS011;54596;43.216;27.904;2023-05-14T03:20:20;29.40;;;19.52;;
67798;SDS011;54596;43.216;27.904;2023-05-14T03:22:46;31.50;;;21.23;;
67798;SDS011;54596;43.216;27.904;2023-05-14T03:25:12;34.53;;;22.20;;
67798;SDS011;54596;43.216;27.904;2023-05-14T03:27:38;31.92;;;21.65;;
67798;SDS011;54596;43.216;27.904;2023-05-14T03:30:04;34.40;;;22.55;;
67798;SDS011;54596;43.216;27.904;2023-05-14T03:32:30;31.77;;;22.67;;
67798;SDS011;54596;43.216;27.904;2023-05-14T03:34:59;31.88;;;21.98;;
67798;SDS011;54596;43.216;27.904;2023-05-14T03:37:24;29.67;;;21.05;;
67798;SDS011;54596;43.216;27.904;2023-05-14T03:39:50;29.23;;;21.13;;
67798;SDS011;54596;43.216;27.904;2023-05-14T03:42:16;31.10;;;20.30;;
67798;SDS011;54596;43.216;27.904;2023-05-14T03:44:41;28.27;;;18.55;;
67798;SDS011;54596;43.216;27.904;2023-05-14T03:47:07;27.15;;;18.80;;
67798;SDS011;54596;43.216;27.904;2023-05-14T03:49:33;26.52;;;17.60;;
67798;SDS011;54596;43.216;27.904;2023-05-14T03:51:58;26.90;;;18.85;;
67798;SDS011;54596;43.216;27.904;2023-05-14T03:54:24;30.80;;;20.98;;
67798;SDS011;54596;43.216;27.904;2023-05-14T03:56:50;30.88;;;22.85;;
67798;SDS011;54596;43.216;27.904;2023-05-14T03:59:15;39.45;;;23.90;;
67798;SDS011;54596;43.216;27.904;2023-05-14T04:01:42;32.80;;;24.95;;
67798;SDS011;54596;43.216;27.904;2023-05-14T04:04:08;35.60;;;24.33;;
67798;SDS011;54596;43.216;27.904;2023-05-14T04:06:33;33.63;;;24.05;;
67798;SDS011;54596;43.216;27.904;2023-05-14T04:08:59;32.65;;;25.13;;
67798;SDS011;54596;43.216;27.904;2023-05-14T04:11:24;38.03;;;23.77;;
67798;SDS011;54596;43.216;27.904;2023-05-14T04:13:50;32.63;;;23.73;;
67798;SDS011;54596;43.216;27.904;2023-05-14T04:16:15;30.80;;;21.13;;
67798;SDS011;54596;43.216;27.904;2023-05-14T04:18:41;28.15;;;20.42;;
67798;SDS011;54596;43.216;27.904;2023-05-14T04:21:06;28.77;;;19.25;;
67798;SDS011;54596;43.216;27.904;2023-05-14T04:23:31;26.08;;;18.48;;
67798;SDS011;54596;43.216;27.904;2023-05-14T04:25:57;29.35;;;18.25;;
67798;SDS011;54596;43.216;27.904;2023-05-14T04:28:23;30.90;;;17.65;;
67798;SDS011;54596;43.216;27.904;2023-05-14T04:30:48;28.83;;;17.90;;
67798;SDS011;54596;43.216;27.904;2023-05-14T04:33:14;25.67;;;16.40;;
67798;SDS011;54596;43.216;27.904;2023-05-14T04:35:40;29.52;;;16.20;;
67798;SDS011;54596;43.216;27.904;2023-05-14T04:38:05;23.75;;;15.77;;
67798;SDS011;54596;43.216;27.904;2023-05-14T04:40:31;22.52;;;16.67;;
67798;SDS011;54596;43.216;27.904;2023-05-14T04:42:56;22.75;;;16.30;;
67798;SDS011;54596;43.216;27.904;2023-05-14T04:45:22;26.33;;;17.25;;
67798;SDS011;54596;43.216;27.904;2023-05-14T04:47:48;24.00;;;17.45;;
67798;SDS011;54596;43.216;27.904;2023-05-14T04:50:13;25.35;;;16.85;;
67798;SDS011;54596;43.216;27.904;2023-05-14T04:52:39;23.98;;;15.95;;
67798;SDS011;54596;43.216;27.904;2023-05-14T04:55:04;27.75;;;17.63;;
67798;SDS011;54596;43.216;27.904;2023-05-14T04:57:30;25.48;;;15.98;;
67798;SDS011;54596;43.216;27.904;2023-05-14T04:59:56;21.17;;;15.85;;
67798;SDS011;54596;43.216;27.904;2023-05-14T05:02:21;27.23;;;14.98;;
67798;SDS011;54596;43.216;27.904;2023-05-14T05:04:47;22.85;;;14.35;;
67798;SDS011;54596;43.216;27.904;2023-05-14T05:07:12;25.55;;;15.15;;
67798;SDS011;54596;43.216;27.904;2023-05-14T05:09:38;21.98;;;15.05;;
67798;SDS011;54596;43.216;27.904;2023-05-14T05:12:04;22.20;;;15.23;;
67798;SDS011;54596;43.216;27.904;2023-05-14T05:14:30;21.77;;;14.52;;
67798;SDS011;54596;43.216;27.904;2023-05-14T05:16:55;26.30;;;15.60;;
67798;SDS011;54596;43.216;27.904;2023-05-14T05:19:21;29.27;;;17.17;;
67798;SDS011;54596;43.216;27.904;2023-05-14T05:21:46;28.80;;;18.13;;
67798;SDS011;54596;43.216;27.904;2023-05-14T05:24:12;24.63;;;16.70;;
67798;SDS011;54596;43.216;27.904;2023-05-14T05:26:37;24.73;;;16.00;;
67798;SDS011;54596;43.216;27.904;2023-05-14T05:29:03;19.20;;;15.75;;
67798;SDS011;54596;43.216;27.904;2023-05-14T05:31:29;27.30;;;15.93;;
67798;SDS011;54596;43.216;27.904;2023-05-14T05:33:56;17.20;;;10.60;;
67798;SDS011;54596;43.216;27.904;2023-05-14T05:36:23;21.40;;;11.52;;
67798;SDS011;54596;43.216;27.904;2023-05-14T05:38:48;15.85;;;8.90;;
67798;SDS011;54596;43.216;27.904;2023-05-14T05:41:14;14.63;;;8.40;;
67798;SDS011;54596;43.216;27.904;2023-05-14T05:43:39;17.20;;;9.98;;
67798;SDS011;54596;43.216;27.904;2023-05-14T05:46:05;16.00;;;8.68;;
67798;SDS011;54596;43.216;27.904;2023-05-14T05:48:31;16.23;;;8.48;;
67798;SDS011;54596;43.216;27.904;2023-05-14T05:50:56;11.50;;;6.53;;
67798;SDS011;54596;43.216;27.904;2023-05-14T05:53:22;20.92;;;7.57;;
67798;SDS011;54596;43.216;27.904;2023-05-14T05:55:47;15.23;;;8.00;;
67798;SDS011;54596;43.216;27.904;2023-05-14T05:58:15;17.52;;;6.55;;
67798;SDS011;54596;43.216;27.904;2023-05-14T06:00:41;10.80;;;5.00;;
67798;SDS011;54596;43.216;27.904;2023-05-14T06:03:07;13.93;;;4.97;;
67798;SDS011;54596;43.216;27.904;2023-05-14T06:05:32;12.82;;;4.85;;
67798;SDS011;54596;43.216;27.904;2023-05-14T06:07:58;10.30;;;4.80;;
67798;SDS011;54596;43.216;27.904;2023-05-14T06:10:23;9.43;;;4.60;;
67798;SDS011;54596;43.216;27.904;2023-05-14T06:12:49;10.43;;;4.90;;
67798;SDS011;54596;43.216;27.904;2023-05-14T06:15:14;9.75;;;4.95;;
67798;SDS011;54596;43.216;27.904;2023-05-14T06:17:40;13.48;;;4.15;;
67798;SDS011;54596;43.216;27.904;2023-05-14T06:20:05;9.93;;;3.90;;
67798;SDS011;54596;43.216;27.904;2023-05-14T06:22:35;9.23;;;3.55;;
67798;SDS011;54596;43.216;27.904;2023-05-14T06:25:00;8.48;;;3.40;;
67798;SDS011;54596;43.216;27.904;2023-05-14T06:27:26;13.32;;;4.20;;
67798;SDS011;54596;43.216;27.904;2023-05-14T06:29:51;13.45;;;4.57;;
67798;SDS011;54596;43.216;27.904;2023-05-14T06:32:17;9.80;;;3.30;;
67798;SDS011;54596;43.216;27.904;2023-05-14T06:34:42;12.25;;;3.55;;
67798;SDS011;54596;43.216;27.904;2023-05-14T06:37:08;8.45;;;3.20;;
67798;SDS011;54596;43.216;27.904;2023-05-14T06:39:34;9.43;;;3.03;;
67798;SDS011;54596;43.216;27.904;2023-05-14T06:42:01;9.70;;;2.83;;
67798;SDS011;54596;43.216;27.904;2023-05-14T06:44:27;7.20;;;2.53;;
67798;SDS011;54596;43.216;27.904;2023-05-14T06:46:53;7.93;;;2.72;;
67798;SDS011;54596;43.216;27.904;2023-05-14T06:49:18;8.38;;;2.53;;
67798;SDS011;54596;43.216;27.904;2023-05-14T06:51:44;5.10;;;2.08;;
67798;SDS011;54596;43.216;27.904;2023-05-14T06:54:10;6.57;;;2.50;;
67798;SDS011;54596;43.216;27.904;2023-05-14T06:56:35;8.20;;;2.50;;
67798;SDS011;54596;43.216;27.904;2023-05-14T06:59:01;6.65;;;2.53;;
67798;SDS011;54596;43.216;27.904;2023-05-14T07:01:26;8.07;;;2.60;;
67798;SDS011;54596;43.216;27.904;2023-05-14T07:03:52;9.00;;;2.33;;
67798;SDS011;54596;43.216;27.904;2023-05-14T07:06:18;7.82;;;2.50;;
67798;SDS011;54596;43.216;27.904;2023-05-14T07:08:43;9.07;;;2.50;;
67798;SDS011;54596;43.216;27.904;2023-05-14T07:11:12;8.30;;;2.58;;
67798;SDS011;54596;43.216;27.904;2023-05-14T07:13:37;7.22;;;2.40;;
67798;SDS011;54596;43.216;27.904;2023-05-14T07:16:03;8.85;;;2.53;;
67798;SDS011;54596;43.216;27.904;2023-05-14T07:18:30;5.75;;;2.03;;
67798;SDS011;54596;43.216;27.904;2023-05-14T07:20:55;9.73;;;2.55;;
67798;SDS011;54596;43.216;27.904;2023-05-14T07:23:20;5.35;;;2.00;;
67798;SDS011;54596;43.216;27.904;2023-05-14T07:25:46;6.75;;;2.42;;
67798;SDS011;54596;43.216;27.904;2023-05-14T07:28:11;5.38;;;2.10;;
67798;SDS011;54596;43.216;27.904;2023-05-14T07:30:37;8.65;;;2.40;;
67798;SDS011;54596;43.216;27.904;2023-05-14T07:33:02;6.32;;;2.20;;
67798;SDS011;54596;43.216;27.904;2023-05-14T07:35:28;6.65;;;2.20;;
67798;SDS011;54596;43.216;27.904;2023-05-14T07:37:53;5.88;;;2.40;;
67798;SDS011;54596;43.216;27.904;2023-05-14T07:40:19;5.38;;;1.90;;
67798;SDS011;54596;43.216;27.904;2023-05-14T07:42:44;6.20;;;2.22;;
67798;SDS011;54596;43.216;27.904;2023-05-14T07:45:10;9.38;;;2.53;;
67798;SDS011;54596;43.216;27.904;2023-05-14T07:47:36;7.55;;;2.50;;
67798;SDS011;54596;43.216;27.904;2023-05-14T07:50:01;6.25;;;2.42;;
67798;SDS011;54596;43.216;27.904;2023-05-14T07:52:27;8.50;;;2.40;;
67798;SDS011;54596;43.216;27.904;2023-05-14T07:54:53;5.70;;;2.20;;
67798;SDS011;54596;43.216;27.904;2023-05-14T07:57:19;7.18;;;2.17;;
67798;SDS011;54596;43.216;27.904;2023-05-14T07:59:44;7.43;;;2.80;;
67798;SDS011;54596;43.216;27.904;2023-05-14T08:02:10;5.50;;;2.05;;
67798;SDS011;54596;43.216;27.904;2023-05-14T08:04:37;6.95;;;2.28;;
67798;SDS011;54596;43.216;27.904;2023-05-14T08:07:02;6.95;;;2.30;;
67798;SDS011;54596;43.216;27.904;2023-05-14T08:09:28;7.60;;;2.50;;
67798;SDS011;54596;43.216;27.904;2023-05-14T08:11:54;9.10;;;2.58;;
67798;SDS011;54596;43.216;27.904;2023-05-14T08:14:19;4.95;;;2.42;;
67798;SDS011;54596;43.216;27.904;2023-05-14T08:16:45;6.85;;;2.28;;
67798;SDS011;54596;43.216;27.904;2023-05-14T08:19:11;5.38;;;2.20;;
67798;SDS011;54596;43.216;27.904;2023-05-14T08:21:37;7.88;;;2.70;;
67798;SDS011;54596;43.216;27.904;2023-05-14T08:24:03;10.18;;;2.80;;
67798;SDS011;54596;43.216;27.904;2023-05-14T08:26:28;10.52;;;2.97;;
67798;SDS011;54596;43.216;27.904;2023-05-14T08:28:54;7.43;;;2.78;;
67798;SDS011;54596;43.216;27.904;2023-05-14T08:31:19;6.30;;;2.30;;
67798;SDS011;54596;43.216;27.904;2023-05-14T08:33:45;6.28;;;2.80;;
67798;SDS011;54596;43.216;27.904;2023-05-14T08:36:10;6.22;;;2.63;;
67798;SDS011;54596;43.216;27.904;2023-05-14T08:38:36;7.30;;;2.72;;
67798;SDS011;54596;43.216;27.904;2023-05-14T08:41:01;11.68;;;4.15;;
67798;SDS011;54596;43.216;27.904;2023-05-14T08:43:32;9.60;;;4.20;;
67798;SDS011;54596;43.216;27.904;2023-05-14T08:46:08;6.32;;;2.92;;
67798;SDS011;54596;43.216;27.904;2023-05-14T08:48:38;7.07;;;2.70;;
67798;SDS011;54596;43.216;27.904;2023-05-14T08:51:06;12.48;;;3.00;;
67798;SDS011;54596;43.216;27.904;2023-05-14T08:53:33;8.02;;;2.40;;
67798;SDS011;54596;43.216;27.904;2023-05-14T08:55:59;8.07;;;2.58;;
67798;SDS011;54596;43.216;27.904;2023-05-14T08:58:25;9.18;;;2.47;;
67798;SDS011;54596;43.216;27.904;2023-05-14T09:00:52;8.13;;;2.58;;
67798;SDS011;54596;43.216;27.904;2023-05-14T09:03:19;8.07;;;2.53;;
67798;SDS011;54596;43.216;27.904;2023-05-14T09:05:46;6.63;;;2.38;;
67798;SDS011;54596;43.216;27.904;2023-05-14T09:08:13;6.47;;;2.47;;
67798;SDS011;54596;43.216;27.904;2023-05-14T09:10:38;6.13;;;2.40;;
67798;SDS011;54596;43.216;27.904;2023-05-14T09:13:04;6.78;;;2.30;;
67798;SDS011;54596;43.216;27.904;2023-05-14T09:15:30;7.35;;;2.67;;
67798;SDS011;54596;43.216;27.904;2023-05-14T09:17:58;5.85;;;2.53;;
67798;SDS011;54596;43.216;27.904;2023-05-14T09:20:23;7.28;;;2.78;;
67798;SDS011;54596;43.216;27.904;2023-05-14T09:22:53;7.28;;;2.70;;
67798;SDS011;54596;43.216;27.904;2023-05-14T09:25:18;10.35;;;2.53;;
67798;SDS011;54596;43.216;27.904;2023-05-14T09:27:45;5.65;;;2.60;;
67798;SDS011;54596;43.216;27.904;2023-05-14T09:30:14;7.57;;;2.83;;
67798;SDS011;54596;43.216;27.904;2023-05-14T09:32:42;8.38;;;2.70;;
67798;SDS011;54596;43.216;27.904;2023-05-14T09:37:43;9.98;;;3.10;;
67798;SDS011;54596;43.216;27.904;2023-05-14T09:40:13;9.13;;;3.20;;
67798;SDS011;54596;43.216;27.904;2023-05-14T09:42:39;8.63;;;2.80;;
67798;SDS011;54596;43.216;27.904;2023-05-14T09:45:06;7.40;;;3.38;;
67798;SDS011;54596;43.216;27.904;2023-05-14T09:47:32;6.07;;;2.92;;
67798;SDS011;54596;43.216;27.904;2023-05-14T09:49:58;9.13;;;4.18;;
67798;SDS011;54596;43.216;27.904;2023-05-14T09:52:23;7.85;;;3.10;;
67798;SDS011;54596;43.216;27.904;2023-05-14T09:54:51;7.22;;;3.03;;
67798;SDS011;54596;43.216;27.904;2023-05-14T09:57:17;8.07;;;3.05;;
67798;SDS011;54596;43.216;27.904;2023-05-14T09:59:43;9.48;;;3.55;;
67798;SDS011;54596;43.216;27.904;2023-05-14T10:02:12;7.43;;;3.00;;
67798;SDS011;54596;43.216;27.904;2023-05-14T10:04:46;11.32;;;4.85;;
67798;SDS011;54596;43.216;27.904;2023-05-14T10:07:13;8.20;;;2.83;;
67798;SDS011;54596;43.216;27.904;2023-05-14T10:09:41;13.98;;;3.25;;
67798;SDS011;54596;43.216;27.904;2023-05-14T10:12:09;13.70;;;5.22;;
67798;SDS011;54596;43.216;27.904;2023-05-14T10:14:37;7.38;;;3.00;;
67798;SDS011;54596;43.216;27.904;2023-05-14T10:17:07;6.45;;;2.83;;
67798;SDS011;54596;43.216;27.904;2023-05-14T10:19:42;9.27;;;3.20;;
67798;SDS011;54596;43.216;27.904;2023-05-14T10:22:11;7.18;;;2.90;;
67798;SDS011;54596;43.216;27.904;2023-05-14T10:24:40;9.18;;;3.10;;
67798;SDS011;54596;43.216;27.904;2023-05-14T10:27:05;9.73;;;3.58;;
67798;SDS011;54596;43.216;27.904;2023-05-14T10:29:32;9.45;;;3.40;;
67798;SDS011;54596;43.216;27.904;2023-05-14T10:32:00;8.10;;;3.45;;
67798;SDS011;54596;43.216;27.904;2023-05-14T10:34:30;7.68;;;3.15;;
67798;SDS011;54596;43.216;27.904;2023-05-14T10:37:09;7.50;;;2.92;;
67798;SDS011;54596;43.216;27.904;2023-05-14T10:39:57;7.50;;;2.88;;
67798;SDS011;54596;43.216;27.904;2023-05-14T10:42:22;8.18;;;3.65;;
67798;SDS011;54596;43.216;27.904;2023-05-14T10:45:10;7.43;;;2.75;;
67798;SDS011;54596;43.216;27.904;2023-05-14T10:47:39;5.60;;;3.03;;
67798;SDS011;54596;43.216;27.904;2023-05-14T10:50:07;7.07;;;2.75;;
67798;SDS011;54596;43.216;27.904;2023-05-14T10:52:34;9.95;;;3.10;;
67798;SDS011;54596;43.216;27.904;2023-05-14T10:55:01;6.63;;;2.80;;
67798;SDS011;54596;43.216;27.904;2023-05-14T10:57:28;8.45;;;3.92;;
67798;SDS011;54596;43.216;27.904;2023-05-14T10:59:56;13.93;;;7.85;;
67798;SDS011;54596;43.216;27.904;2023-05-14T11:07:31;7.55;;;2.75;;
67798;SDS011;54596;43.216;27.904;2023-05-14T11:10:04;8.55;;;3.20;;
67798;SDS011;54596;43.216;27.904;2023-05-14T11:12:32;7.75;;;2.70;;
67798;SDS011;54596;43.216;27.904;2023-05-14T11:14:59;6.95;;;2.72;;
67798;SDS011;54596;43.216;27.904;2023-05-14T11:17:28;8.00;;;3.40;;
67798;SDS011;54596;43.216;27.904;2023-05-14T11:19:55;7.45;;;3.60;;
67798;SDS011;54596;43.216;27.904;2023-05-14T11:22:21;7.05;;;2.95;;
67798;SDS011;54596;43.216;27.904;2023-05-14T11:24:47;9.07;;;2.95;;
67798;SDS011;54596;43.216;27.904;2023-05-14T11:27:13;9.45;;;2.80;;
67798;SDS011;54596;43.216;27.904;2023-05-14T11:29:42;7.22;;;3.05;;
67798;SDS011;54596;43.216;27.904;2023-05-14T11:32:09;7.60;;;3.30;;
67798;SDS011;54596;43.216;27.904;2023-05-14T11:34:34;7.68;;;2.85;;
67798;SDS011;54596;43.216;27.904;2023-05-14T11:37:04;7.65;;;2.80;;
67798;SDS011;54596;43.216;27.904;2023-05-14T11:39:31;7.25;;;2.60;;
67798;SDS011;54596;43.216;27.904;2023-05-14T11:42:18;5.80;;;2.70;;
67798;SDS011;54596;43.216;27.904;2023-05-14T11:44:47;7.93;;;2.85;;
67798;SDS011;54596;43.216;27.904;2023-05-14T11:47:15;8.55;;;2.65;;
67798;SDS011;54596;43.216;27.904;2023-05-14T11:49:42;10.20;;;3.53;;
67798;SDS011;54596;43.216;27.904;2023-05-14T11:52:08;9.15;;;3.40;;
67798;SDS011;54596;43.216;27.904;2023-05-14T11:54:35;6.32;;;3.00;;
67798;SDS011;54596;43.216;27.904;2023-05-14T11:57:05;10.15;;;3.10;;
67798;SDS011;54596;43.216;27.904;2023-05-14T11:59:32;9.20;;;3.58;;
67798;SDS011;54596;43.216;27.904;2023-05-14T12:01:58;7.57;;;3.70;;
67798;SDS011;54596;43.216;27.904;2023-05-14T12:04:24;8.35;;;3.40;;
67798;SDS011;54596;43.216;27.904;2023-05-14T12:06:50;9.73;;;3.40;;
67798;SDS011;54596;43.216;27.904;2023-05-14T12:09:17;7.25;;;3.10;;
67798;SDS011;54596;43.216;27.904;2023-05-14T12:11:43;8.15;;;3.63;;
67798;SDS011;54596;43.216;27.904;2023-05-14T12:14:13;7.03;;;3.17;;
67798;SDS011;54596;43.216;27.904;2023-05-14T12:16:40;7.38;;;3.50;;
67798;SDS011;54596;43.216;27.904;2023-05-14T12:19:07;8.35;;;3.70;;
67798;SDS011;54596;43.216;27.904;2023-05-14T12:21:34;7.68;;;3.65;;
67798;SDS011;54596;43.216;27.904;2023-05-14T12:24:00;9.73;;;3.40;;
67798;SDS011;54596;43.216;27.904;2023-05-14T12:26:26;8.13;;;3.30;;
67798;SDS011;54596;43.216;27.904;2023-05-14T12:28:59;9.52;;;3.67;;
67798;SDS011;54596;43.216;27.904;2023-05-14T12:31:29;9.93;;;5.40;;
67798;SDS011;54596;43.216;27.904;2023-05-14T12:33:55;6.82;;;3.28;;
67798;SDS011;54596;43.216;27.904;2023-05-14T12:36:21;7.82;;;3.40;;
67798;SDS011;54596;43.216;27.904;2023-05-14T12:38:47;8.38;;;3.38;;
67798;SDS011;54596;43.216;27.904;2023-05-14T12:41:13;6.65;;;2.70;;
67798;SDS011;54596;43.216;27.904;2023-05-14T12:43:41;9.93;;;3.17;;
67798;SDS011;54596;43.216;27.904;2023-05-14T12:46:07;8.43;;;3.20;;
67798;SDS011;54596;43.216;27.904;2023-05-14T12:48:32;8.75;;;3.30;;
67798;SDS011;54596;43.216;27.904;2023-05-14T12:50:58;9.73;;;3.30;;
67798;SDS011;54596;43.216;27.904;2023-05-14T12:53:23;8.98;;;3.13;;
67798;SDS011;54596;43.216;27.904;2023-05-14T12:55:49;8.43;;;3.28;;
67798;SDS011;54596;43.216;27.904;2023-05-14T12:58:14;8.82;;;3.20;;
67798;SDS011;54596;43.216;27.904;2023-05-14T13:00:40;9.05;;;3.30;;
67798;SDS011;54596;43.216;27.904;2023-05-14T13:03:06;9.45;;;3.15;;
67798;SDS011;54596;43.216;27.904;2023-05-14T13:05:31;7.88;;;3.40;;
67798;SDS011;54596;43.216;27.904;2023-05-14T13:07:57;8.32;;;3.60;;
67798;SDS011;54596;43.216;27.904;2023-05-14T13:10:24;7.18;;;3.05;;
67798;SDS011;54596;43.216;27.904;2023-05-14T13:12:49;7.50;;;3.03;;
67798;SDS011;54596;43.216;27.904;2023-05-14T13:15:16;6.38;;;3.00;;
67798;SDS011;54596;43.216;27.904;2023-05-14T13:17:42;6.82;;;3.10;;
67798;SDS011;54596;43.216;27.904;2023-05-14T13:20:08;7.45;;;3.08;;
67798;SDS011;54596;43.216;27.904;2023-05-14T13:22:34;9.57;;;3.13;;
67798;SDS011;54596;43.216;27.904;2023-05-14T13:24:59;10.05;;;3.03;;
67798;SDS011;54596;43.216;27.904;2023-05-14T13:27:25;7.07;;;3.15;;
67798;SDS011;54596;43.216;27.904;2023-05-14T13:29:50;54.67;;;5.88;;
67798;SDS011;54596;43.216;27.904;2023-05-14T13:32:16;10.57;;;3.13;;
67798;SDS011;54596;43.216;27.904;2023-05-14T13:34:41;10.15;;;3.10;;
67798;SDS011;54596;43.216;27.904;2023-05-14T13:37:08;6.68;;;2.85;;
67798;SDS011;54596;43.216;27.904;2023-05-14T13:39:33;8.07;;;3.03;;
67798;SDS011;54596;43.216;27.904;2023-05-14T13:41:59;6.47;;;2.88;;
67798;SDS011;54596;43.216;27.904;2023-05-14T13:47:46;10.18;;;3.08;;
67798;SDS011;54596;43.216;27.904;2023-05-14T13:50:12;9.32;;;3.05;;
67798;SDS011;54596;43.216;27.904;2023-05-14T13:52:37;6.78;;;3.13;;
67798;SDS011;54596;43.216;27.904;2023-05-14T13:55:03;12.65;;;3.80;;
67798;SDS011;54596;43.216;27.904;2023-05-14T13:57:29;7.63;;;3.30;;
67798;SDS011;54596;43.216;27.904;2023-05-14T13:59:55;8.95;;;3.20;;
67798;SDS011;54596;43.216;27.904;2023-05-14T14:02:20;9.18;;;3.00;;
67798;SDS011;54596;43.216;27.904;2023-05-14T14:04:46;7.28;;;3.30;;
67798;SDS011;54596;43.216;27.904;2023-05-14T14:07:11;8.65;;;3.20;;
67798;SDS011;54596;43.216;27.904;2023-05-14T14:09:37;8.05;;;3.30;;
67798;SDS011;54596;43.216;27.904;2023-05-14T14:12:02;10.07;;;3.28;;
67798;SDS011;54596;43.216;27.904;2023-05-14T14:14:28;8.18;;;3.17;;
67798;SDS011;54596;43.216;27.904;2023-05-14T14:16:54;7.68;;;3.20;;
67798;SDS011;54596;43.216;27.904;2023-05-14T14:19:19;8.10;;;3.35;;
67798;SDS011;54596;43.216;27.904;2023-05-14T14:21:45;12.73;;;3.92;;
67798;SDS011;54596;43.216;27.904;2023-05-14T14:24:10;8.38;;;3.67;;
67798;SDS011;54596;43.216;27.904;2023-05-14T14:26:36;10.18;;;3.40;;
67798;SDS011;54596;43.216;27.904;2023-05-14T14:29:01;9.07;;;3.35;;
67798;SDS011;54596;43.216;27.904;2023-05-14T14:31:27;7.50;;;3.33;;
67798;SDS011;54596;43.216;27.904;2023-05-14T14:33:53;7.88;;;3.00;;
67798;SDS011;54596;43.216;27.904;2023-05-14T14:36:18;8.52;;;3.65;;
67798;SDS011;54596;43.216;27.904;2023-05-14T14:38:43;10.88;;;3.80;;